Terminal Aerodrome Forecast
Issued by NWS Amarillo, TX

Home | Current Version | Previous Version | Text Only | Print | Product List | Glossary On
Versions: 1 2 3 4 5 6 7 8 9 10 11 12
000
FTUS44 KAMA 201139
TAFAMA
TAF
KAMA 201139Z 2012/2112 18014KT P6SM VCSH SCT008 OVC100
     FM201600 20020G30KT P6SM SKC
     FM210200 18020KT P6SM SCT250
     FM211100 20015KT P6SM FEW250=

USA.gov is the U.S. government's official web portal to all federal, state and local government web resources and services.